Time;durP1;ratioP1;P1;durP2;ratioP2;P2;SDS_P1;SDS_P2;PMS_P1;PMS_P2;Temp;Humidity;BMP_temperature;BMP_pressure;BME280_temperature;BME280_humidity;BME280_pressure;Samples;Min_cycle;Max_cycle;Signal;HPM_P1;HPM_P2
2022/03/19 00:00:54;;;;;;;63.80;52.20;;;8.00;99.90;;;;;;5012372;28;20961;-70
2022/03/19 00:03:20;;;;;;;77.03;54.60;;;8.00;99.90;;;;;;5011328;28;20176;-70
2022/03/19 00:05:46;;;;;;;71.00;53.53;;;7.90;99.90;;;;;;5011174;28;20699;-70
2022/03/19 00:08:12;;;;;;;72.70;52.20;;;7.90;99.90;;;;;;5012621;28;20407;-70
2022/03/19 00:10:37;;;;;;;69.20;56.03;;;8.00;99.90;;;;;;5012468;28;20414;-70
2022/03/19 00:13:03;;;;;;;59.67;48.87;;;8.00;99.90;;;;;;5014919;28;20173;-69
2022/03/19 00:15:29;;;;;;;65.27;51.57;;;8.00;99.90;;;;;;5015853;28;20552;-69
2022/03/19 00:17:57;;;;;;;70.07;52.87;;;8.00;99.90;;;;;;5015707;28;20392;-69
2022/03/19 00:20:23;;;;;;;66.27;50.77;;;8.00;99.90;;;;;;5021268;28;20176;-70
2022/03/19 00:22:49;;;;;;;68.20;51.70;;;7.80;99.90;;;;;;5021634;28;20960;-70
2022/03/19 00:25:14;;;;;;;78.50;58.70;;;7.70;99.90;;;;;;5021266;28;20431;-70
2022/03/19 00:27:41;;;;;;;64.23;48.20;;;7.60;99.90;;;;;;5020862;28;20657;-70
2022/03/19 00:30:07;;;;;;;64.60;51.30;;;7.50;99.90;;;;;;5021229;28;20649;-70
2022/03/19 00:32:33;;;;;;;64.30;51.60;;;7.40;99.90;;;;;;5019382;28;20422;-70
2022/03/19 00:34:58;;;;;;;67.23;52.30;;;7.40;99.90;;;;;;5019735;28;21130;-70
2022/03/19 00:37:24;;;;;;;65.27;49.80;;;7.40;99.90;;;;;;5018709;28;20953;-70
2022/03/19 00:39:50;;;;;;;63.40;49.97;;;7.50;99.90;;;;;;5014349;28;20176;-69
2022/03/19 00:42:15;;;;;;;65.00;50.80;;;7.70;99.90;;;;;;5015844;28;20176;-69
2022/03/19 00:44:42;;;;;;;69.37;51.90;;;7.50;99.90;;;;;;5003191;28;20310;-69
2022/03/19 00:47:07;;;;;;;64.87;50.30;;;7.50;99.90;;;;;;5015594;28;20338;-70
2022/03/19 00:49:33;;;;;;;67.07;52.50;;;7.50;99.90;;;;;;5013941;28;20426;-69
2022/03/19 00:51:58;;;;;;;65.03;51.10;;;7.70;99.90;;;;;;5015491;28;20178;-70
2022/03/19 00:54:24;;;;;;;64.57;52.00;;;7.70;99.90;;;;;;5015853;28;20224;-71
2022/03/19 00:56:50;;;;;;;68.40;54.37;;;7.50;99.90;;;;;;5014353;28;20190;-71
2022/03/19 00:59:15;;;;;;;69.43;51.70;;;7.50;99.90;;;;;;5019487;28;20223;-71
2022/03/19 01:01:41;;;;;;;61.97;50.97;;;7.50;99.90;;;;;;5017310;28;20410;-71
2022/03/19 01:04:07;;;;;;;70.20;52.57;;;7.40;99.90;;;;;;5016483;28;20173;-71
2022/03/19 01:06:32;;;;;;;64.43;51.50;;;7.50;99.90;;;;;;5017192;28;20219;-71
2022/03/19 01:08:58;;;;;;;62.53;50.13;;;7.40;99.90;;;;;;5024876;28;20735;-71
2022/03/19 01:11:24;;;;;;;64.77;51.20;;;7.40;99.90;;;;;;5022898;28;20215;-71
2022/03/19 01:13:54;;;;;;;63.87;50.33;;;7.40;99.90;;;;;;5024357;28;20235;-71
2022/03/19 01:16:19;;;;;;;60.27;49.03;;;7.50;99.90;;;;;;5024935;28;20204;-71
2022/03/19 01:18:46;;;;;;;65.50;51.00;;;7.40;99.90;;;;;;5026068;28;20415;-69
2022/03/19 01:21:11;;;;;;;60.97;49.30;;;7.50;99.90;;;;;;5025199;28;20176;-69
2022/03/19 01:23:37;;;;;;;58.27;47.40;;;7.40;99.90;;;;;;5025488;28;20420;-69
2022/03/19 01:26:03;;;;;;;60.50;48.07;;;7.40;99.90;;;;;;5026537;28;20551;-69
2022/03/19 01:28:28;;;;;;;54.47;46.77;;;7.60;99.90;;;;;;5025080;28;20193;-70
2022/03/19 01:30:54;;;;;;;61.70;47.50;;;7.50;99.90;;;;;;5016371;28;20186;-70
2022/03/19 01:33:19;;;;;;;63.47;50.93;;;7.50;99.90;;;;;;5013204;28;20196;-70
2022/03/19 01:35:45;;;;;;;61.50;48.60;;;7.40;99.90;;;;;;5015149;28;20745;-71
2022/03/19 01:38:10;;;;;;;57.87;46.80;;;7.50;99.90;;;;;;5013465;28;20168;-71
2022/03/19 01:40:36;;;;;;;59.77;48.80;;;7.50;99.90;;;;;;5014768;28;20244;-71
2022/03/19 01:43:02;;;;;;;59.73;47.13;;;7.30;99.90;;;;;;5015369;28;20170;-71
2022/03/19 01:45:28;;;;;;;65.23;48.43;;;7.20;99.90;;;;;;5012816;28;20279;-70
2022/03/19 01:47:54;;;;;;;60.53;48.40;;;7.20;99.90;;;;;;5014403;28;20169;-70
2022/03/19 01:50:22;;;;;;;56.23;43.87;;;7.40;99.90;;;;;;5013346;28;20259;-71
2022/03/19 01:52:48;;;;;;;61.23;48.93;;;7.50;99.90;;;;;;5014716;28;20505;-71
2022/03/19 01:55:17;;;;;;;59.03;44.37;;;7.60;99.90;;;;;;5012671;28;20452;-70
2022/03/19 01:57:45;;;;;;;56.03;45.03;;;7.50;99.90;;;;;;5014321;28;21012;-70
2022/03/19 02:00:13;;;;;;;62.87;49.57;;;7.30;99.90;;;;;;5014360;28;20408;-70
2022/03/19 02:02:39;;;;;;;58.93;48.37;;;7.30;99.90;;;;;;5012873;28;20721;-70
2022/03/19 02:05:06;;;;;;;59.60;48.50;;;7.40;99.90;;;;;;5014442;28;20419;-70
2022/03/19 02:07:31;;;;;;;51.83;42.50;;;7.40;99.90;;;;;;5013821;28;20429;-70
2022/03/19 02:09:58;;;;;;;57.87;46.30;;;7.50;99.90;;;;;;5014175;28;20422;-70
2022/03/19 02:12:24;;;;;;;65.80;47.40;;;7.50;99.90;;;;;;5012864;28;20212;-70
2022/03/19 02:14:50;;;;;;;59.07;47.73;;;7.40;99.90;;;;;;5011602;28;20498;-70
2022/03/19 02:17:16;;;;;;;57.07;43.67;;;7.20;99.90;;;;;;4983190;28;20478;-70
2022/03/19 02:19:51;;;;;;;57.93;47.20;;;7.30;99.90;;;;;;4993330;28;20472;-70
2022/03/19 02:22:19;;;;;;;62.33;50.13;;;7.30;99.90;;;;;;5013948;28;20236;-70
2022/03/19 02:27:31;;;;;;;59.90;45.60;;;7.40;99.90;;;;;;4975346;28;20438;-70
2022/03/19 02:29:57;;;;;;;53.73;44.80;;;7.50;99.90;;;;;;4974726;28;20786;-70
2022/03/19 02:32:23;;;;;;;54.13;44.00;;;7.50;99.90;;;;;;4990245;28;20446;-70
2022/03/19 02:34:49;;;;;;;56.70;46.50;;;7.50;99.90;;;;;;5013304;28;20453;-70
2022/03/19 02:37:14;;;;;;;57.10;46.70;;;7.50;99.90;;;;;;5011568;28;20626;-70
2022/03/19 02:39:40;;;;;;;53.13;43.47;;;7.30;99.90;;;;;;5013859;28;20172;-69
2022/03/19 02:42:07;;;;;;;59.67;46.20;;;7.40;99.90;;;;;;5013647;28;20259;-70
2022/03/19 02:44:34;;;;;;;56.30;46.47;;;7.40;99.90;;;;;;5008247;28;20185;-70
2022/03/19 02:47:02;;;;;;;56.97;47.30;;;7.20;99.90;;;;;;4996961;28;20534;-68
2022/03/19 02:49:28;;;;;;;56.13;41.07;;;7.20;99.90;;;;;;4981028;28;20435;-69
2022/03/19 02:51:54;;;;;;;59.17;49.83;;;7.30;99.90;;;;;;4989521;28;20795;-69
2022/03/19 02:54:23;;;;;;;56.67;45.80;;;7.20;99.90;;;;;;4993525;28;20189;-69
2022/03/19 02:56:51;;;;;;;60.70;47.23;;;7.20;99.90;;;;;;4993108;28;20623;-69
2022/03/19 02:59:22;;;;;;;55.00;43.40;;;7.10;99.90;;;;;;4993046;28;20404;-69
2022/03/19 03:01:49;;;;;;;53.50;43.63;;;7.00;99.90;;;;;;5009087;28;20493;-69
2022/03/19 03:04:15;;;;;;;54.23;45.20;;;7.10;99.90;;;;;;5013693;28;20416;-69
2022/03/19 03:06:44;;;;;;;56.40;45.57;;;7.00;99.90;;;;;;5013407;28;20423;-69
2022/03/19 03:09:11;;;;;;;57.50;45.27;;;7.00;99.90;;;;;;5013972;28;20891;-69
2022/03/19 03:11:38;;;;;;;62.33;48.73;;;7.10;99.90;;;;;;5014369;28;20407;-70
2022/03/19 03:14:05;;;;;;;57.60;45.10;;;7.20;99.90;;;;;;5015599;28;20523;-70
2022/03/19 03:16:30;;;;;;;57.93;47.13;;;7.20;99.90;;;;;;5012227;28;20846;-70
2022/03/19 03:18:58;;;;;;;52.80;45.30;;;7.10;99.90;;;;;;5022800;23;20479;-67
2022/03/19 03:21:25;;;;;;;58.30;45.57;;;7.00;99.90;;;;;;5010939;28;20165;-67
2022/03/19 03:23:51;;;;;;;51.57;42.03;;;6.90;99.90;;;;;;5013063;28;20482;-67
2022/03/19 03:26:17;;;;;;;56.23;43.70;;;7.00;99.90;;;;;;5013478;28;20431;-67
2022/03/19 03:28:42;;;;;;;48.73;40.93;;;7.10;99.90;;;;;;5013325;28;20250;-67
2022/03/19 03:31:08;;;;;;;53.83;44.50;;;7.10;99.90;;;;;;5011576;28;20182;-67
2022/03/19 03:33:34;;;;;;;59.03;45.33;;;7.10;99.90;;;;;;5013468;28;20196;-67
2022/03/19 03:35:59;;;;;;;55.70;42.83;;;7.20;99.90;;;;;;5013532;28;20637;-67
2022/03/19 03:38:25;;;;;;;59.90;46.60;;;7.20;99.90;;;;;;5013534;28;20322;-67
2022/03/19 03:40:51;;;;;;;49.43;42.27;;;7.10;99.90;;;;;;5013650;28;20192;-67
2022/03/19 03:43:17;;;;;;;62.63;47.93;;;7.20;99.90;;;;;;5013582;28;20168;-67
2022/03/19 03:45:43;;;;;;;55.20;44.87;;;7.20;99.90;;;;;;5010497;28;20604;-67
2022/03/19 03:48:09;;;;;;;51.80;41.97;;;7.10;99.90;;;;;;5014663;28;20568;-68
2022/03/19 03:50:36;;;;;;;52.50;44.17;;;6.90;99.90;;;;;;5016783;28;20176;-67
2022/03/19 03:53:04;;;;;;;60.43;47.03;;;7.00;99.90;;;;;;5016853;28;20399;-67
2022/03/19 03:55:30;;;;;;;56.27;42.33;;;7.00;99.90;;;;;;5016892;28;20422;-68
2022/03/19 03:57:55;;;;;;;58.93;45.13;;;7.00;99.90;;;;;;5016795;28;20389;-66
2022/03/19 04:00:21;;;;;;;54.30;45.03;;;6.90;99.90;;;;;;5016465;28;20411;-68
2022/03/19 04:02:47;;;;;;;55.80;43.90;;;6.90;99.90;;;;;;5016504;28;20614;-67
2022/03/19 04:05:12;;;;;;;49.90;42.40;;;6.90;99.90;;;;;;5015401;28;20676;-68
2022/03/19 04:07:38;;;;;;;53.67;43.80;;;6.90;99.90;;;;;;5016623;28;20172;-67
2022/03/19 04:10:05;;;;;;;56.27;46.70;;;6.90;99.90;;;;;;5016765;28;20200;-67
2022/03/19 04:12:30;;;;;;;56.57;42.60;;;6.80;99.90;;;;;;5016515;28;20160;-67
2022/03/19 04:14:56;;;;;;;61.13;44.53;;;6.60;99.90;;;;;;5016301;28;20958;-67
2022/03/19 04:17:22;;;;;;;58.43;46.33;;;6.50;99.90;;;;;;5016119;28;20168;-67
2022/03/19 04:19:47;;;;;;;59.77;41.63;;;6.70;99.90;;;;;;5015035;28;20270;-67
2022/03/19 04:22:13;;;;;;;54.53;41.50;;;6.70;99.90;;;;;;5016176;28;20162;-68
2022/03/19 04:24:38;;;;;;;53.57;39.93;;;6.70;99.90;;;;;;5016443;28;20176;-68
2022/03/19 04:27:04;;;;;;;56.70;44.77;;;6.80;99.90;;;;;;5016223;28;20164;-67
2022/03/19 04:29:30;;;;;;;52.07;42.57;;;6.80;99.90;;;;;;5016318;28;20191;-67
2022/03/19 04:31:56;;;;;;;53.60;42.90;;;6.90;99.90;;;;;;5014643;28;20763;-66
2022/03/19 04:34:22;;;;;;;57.07;45.33;;;6.70;99.90;;;;;;5015724;28;20470;-67
2022/03/19 04:36:47;;;;;;;53.63;43.10;;;6.70;99.90;;;;;;5016458;28;20979;-66
2022/03/19 04:39:13;;;;;;;55.63;42.33;;;6.70;99.90;;;;;;5015972;28;20184;-66
2022/03/19 04:41:39;;;;;;;62.57;46.60;;;6.70;99.90;;;;;;5003956;28;20575;-68
2022/03/19 04:44:08;;;;;;;52.43;42.60;;;6.70;99.90;;;;;;5011488;28;20168;-66
2022/03/19 04:46:34;;;;;;;55.90;43.60;;;6.60;99.90;;;;;;4996055;28;20548;-67
2022/03/19 04:49:01;;;;;;;52.50;41.93;;;6.80;99.90;;;;;;4995119;28;20424;-67
2022/03/19 04:51:34;;;;;;;56.93;44.90;;;6.60;99.90;;;;;;4996334;28;20420;-66
2022/03/19 04:54:00;;;;;;;55.73;43.80;;;6.50;99.90;;;;;;4996671;28;20428;-67
2022/03/19 04:56:27;;;;;;;54.80;42.17;;;6.60;99.90;;;;;;4996237;28;20408;-67
2022/03/19 04:58:55;;;;;;;58.13;44.47;;;6.70;99.90;;;;;;4995373;28;20428;-67
2022/03/19 05:01:21;;;;;;;51.03;41.30;;;6.50;99.90;;;;;;4995930;28;20415;-67
2022/03/19 05:03:47;;;;;;;52.53;44.27;;;6.40;99.90;;;;;;5012427;28;20426;-68
2022/03/19 05:06:13;;;;;;;55.23;44.27;;;6.50;99.90;;;;;;5015650;28;20399;-67
2022/03/19 05:08:38;;;;;;;53.70;44.07;;;6.40;99.90;;;;;;5015592;28;20215;-67
2022/03/19 05:11:13;;;;;;;51.80;42.80;;;6.40;99.90;;;;;;5014715;28;20172;-68
2022/03/19 05:13:44;;;;;;;56.03;43.40;;;6.30;99.90;;;;;;5015444;28;20184;-67
2022/03/19 05:16:10;;;;;;;53.70;41.00;;;6.40;99.90;;;;;;5015300;28;20412;-67
2022/03/19 05:18:37;;;;;;;55.70;41.90;;;6.30;99.90;;;;;;5014628;28;20434;-67
2022/03/19 05:21:03;;;;;;;55.23;40.30;;;6.30;99.90;;;;;;5013973;28;20427;-67
2022/03/19 05:23:29;;;;;;;52.93;41.80;;;6.40;99.90;;;;;;5015213;28;20411;-67
2022/03/19 05:25:54;;;;;;;48.57;41.10;;;6.30;99.90;;;;;;5015104;28;20415;-67
2022/03/19 05:28:20;;;;;;;54.20;41.43;;;6.30;99.90;;;;;;5015009;28;20184;-67
2022/03/19 05:30:47;;;;;;;55.40;41.90;;;6.20;99.90;;;;;;5015034;28;20251;-67
2022/03/19 05:33:14;;;;;;;53.50;41.83;;;6.20;99.90;;;;;;5013440;28;20198;-67
2022/03/19 05:35:41;;;;;;;49.50;40.00;;;6.30;99.90;;;;;;5015201;28;20408;-68
2022/03/19 05:38:07;;;;;;;54.07;41.10;;;6.30;99.90;;;;;;5014974;28;20806;-67
2022/03/19 05:40:33;;;;;;;50.87;40.87;;;6.40;99.90;;;;;;5014433;28;20427;-67
2022/03/19 05:42:59;;;;;;;53.47;38.97;;;6.30;99.90;;;;;;5015189;28;20395;-67
2022/03/19 05:45:25;;;;;;;53.90;40.17;;;6.30;99.90;;;;;;5016024;28;20875;-67
2022/03/19 05:47:51;;;;;;;51.37;40.57;;;6.30;99.90;;;;;;5013418;28;20263;-66
2022/03/19 05:50:17;;;;;;;50.77;43.07;;;6.50;99.90;;;;;;5014677;28;20168;-68
2022/03/19 05:52:46;;;;;;;50.07;39.30;;;6.50;99.90;;;;;;5015051;28;20772;-66
2022/03/19 05:55:13;;;;;;;53.97;40.77;;;6.40;99.90;;;;;;5018161;28;20478;-67
2022/03/19 05:57:40;;;;;;;50.07;39.33;;;6.50;99.90;;;;;;5015732;28;20985;-66
2022/03/19 06:00:08;;;;;;;55.77;41.30;;;6.50;99.90;;;;;;5016635;28;20947;-66
2022/03/19 06:02:39;;;;;;;60.23;41.60;;;6.40;99.90;;;;;;5014624;28;20510;-66
2022/03/19 06:05:05;;;;;;;51.63;39.93;;;6.20;99.90;;;;;;5015203;28;20518;-66
2022/03/19 06:07:31;;;;;;;56.43;39.33;;;6.30;99.90;;;;;;5014355;28;20522;-67
2022/03/19 06:09:57;;;;;;;48.30;38.67;;;6.30;99.90;;;;;;5014031;28;20450;-67
2022/03/19 06:12:22;;;;;;;49.77;39.30;;;6.30;99.90;;;;;;4996725;28;20186;-66
2022/03/19 06:14:53;;;;;;;51.23;37.83;;;6.50;99.90;;;;;;4988777;28;20196;-67
2022/03/19 06:17:19;;;;;;;50.30;38.63;;;6.60;99.90;;;;;;4994861;28;20578;-67
2022/03/19 06:19:45;;;;;;;53.00;39.50;;;6.50;99.90;;;;;;4993982;28;20464;-67
2022/03/19 06:22:11;;;;;;;52.67;42.60;;;6.50;99.90;;;;;;4994496;28;20459;-67
2022/03/19 06:24:36;;;;;;;54.90;41.50;;;6.50;99.90;;;;;;4994362;28;20257;-66
2022/03/19 06:27:03;;;;;;;47.97;39.30;;;6.30;99.90;;;;;;4994639;28;20180;-67
2022/03/19 06:29:28;;;;;;;54.13;42.20;;;6.40;99.90;;;;;;5009976;28;20283;-66
2022/03/19 06:31:54;;;;;;;46.97;39.40;;;6.50;99.90;;;;;;5012684;28;20405;-66
2022/03/19 06:34:20;;;;;;;53.80;41.70;;;6.60;99.90;;;;;;5012121;28;20217;-67
2022/03/19 06:39:29;;;;;;;47.10;38.50;;;6.80;99.90;;;;;;4994740;28;20733;-67
2022/03/19 06:41:55;;;;;;;53.60;41.50;;;6.80;99.90;;;;;;4994134;28;20496;-67
2022/03/19 06:44:21;;;;;;;51.60;42.97;;;6.70;99.90;;;;;;4994341;28;20166;-67
2022/03/19 06:46:46;;;;;;;48.53;39.43;;;6.90;99.90;;;;;;4994556;28;20171;-66
2022/03/19 06:49:12;;;;;;;46.83;38.80;;;6.80;99.90;;;;;;4993565;28;20194;-67
2022/03/19 06:51:38;;;;;;;48.93;38.17;;;7.00;99.90;;;;;;4994307;28;20235;-67
2022/03/19 06:54:04;;;;;;;48.97;39.90;;;7.10;99.90;;;;;;4994097;28;20202;-66
2022/03/19 06:56:29;;;;;;;45.07;36.03;;;7.20;99.90;;;;;;4993829;28;20165;-67
2022/03/19 06:58:55;;;;;;;50.77;39.60;;;7.30;99.90;;;;;;4994153;28;20428;-68
2022/03/19 07:01:21;;;;;;;41.80;36.33;;;7.20;99.90;;;;;;4994304;28;20619;-67
2022/03/19 07:03:47;;;;;;;46.97;36.93;;;7.00;99.90;;;;;;5005627;28;20647;-67
2022/03/19 07:06:15;;;;;;;48.73;39.07;;;7.00;99.90;;;;;;5013355;28;20195;-66
2022/03/19 07:08:42;;;;;;;46.93;38.00;;;6.70;99.90;;;;;;5013626;28;20431;-67
2022/03/19 07:11:08;;;;;;;49.27;40.10;;;6.90;99.90;;;;;;5013324;28;20914;-66
2022/03/19 07:13:34;;;;;;;48.40;38.20;;;7.10;99.90;;;;;;5013201;28;20443;-66
2022/03/19 07:16:00;;;;;;;48.17;37.77;;;7.20;99.90;;;;;;5013261;28;20403;-67
2022/03/19 07:18:26;;;;;;;47.87;36.90;;;7.20;99.90;;;;;;5012747;28;20451;-67
2022/03/19 07:20:52;;;;;;;45.27;38.20;;;7.40;99.90;;;;;;5013511;28;20449;-67
2022/03/19 07:23:17;;;;;;;54.17;44.60;;;7.40;99.90;;;;;;5018767;28;20160;-67
2022/03/19 07:25:43;;;;;;;46.70;38.50;;;7.50;99.90;;;;;;5020052;28;20165;-67
2022/03/19 07:28:14;;;;;;;47.17;39.60;;;7.60;99.90;;;;;;5019840;28;20243;-66
2022/03/19 07:30:41;;;;;;;45.53;38.47;;;7.20;99.90;;;;;;5019611;28;20406;-66
2022/03/19 07:33:07;;;;;;;48.03;38.97;;;7.20;99.90;;;;;;5018000;28;20970;-66
2022/03/19 07:35:32;;;;;;;47.47;39.23;;;7.30;99.90;;;;;;5019837;28;20447;-67
2022/03/19 07:37:58;;;;;;;47.90;38.70;;;7.30;99.90;;;;;;5019516;28;20478;-67
2022/03/19 07:43:10;;;;;;;44.47;36.30;;;7.40;99.90;;;;;;5019947;28;20641;-66
2022/03/19 07:45:37;;;;;;;42.67;35.73;;;7.60;99.90;;;;;;5017808;28;20929;-67
2022/03/19 07:48:05;;;;;;;48.10;38.43;;;7.70;99.90;;;;;;5019491;28;20483;-69
2022/03/19 07:50:31;;;;;;;41.43;34.90;;;7.70;99.90;;;;;;5018148;28;20425;-67
2022/03/19 07:52:57;;;;;;;45.10;35.50;;;7.80;99.90;;;;;;5019873;28;20887;-67
2022/03/19 07:55:24;;;;;;;38.97;32.57;;;7.80;99.90;;;;;;5019638;28;20479;-67
2022/03/19 07:57:50;;;;;;;39.60;33.30;;;7.80;99.90;;;;;;5020547;28;20183;-68
2022/03/19 08:00:16;;;;;;;44.23;36.60;;;7.80;99.90;;;;;;5020318;28;20397;-67
2022/03/19 08:02:42;;;;;;;39.23;32.40;;;7.80;99.90;;;;;;5018223;28;20414;-67
2022/03/19 08:05:09;;;;;;;40.17;35.30;;;8.00;99.90;;;;;;5017786;28;20442;-67
2022/03/19 08:07:37;;;;;;;40.90;33.93;;;8.00;99.90;;;;;;5019647;28;20456;-67
2022/03/19 08:10:06;;;;;;;39.43;33.27;;;8.10;99.90;;;;;;5019358;28;20431;-67
2022/03/19 08:12:33;;;;;;;38.67;33.27;;;8.10;99.90;;;;;;5019429;28;20412;-67
2022/03/19 08:14:59;;;;;;;38.63;32.83;;;8.20;99.90;;;;;;5018498;28;20542;-66
2022/03/19 08:17:26;;;;;;;36.80;30.37;;;8.50;99.90;;;;;;5019833;28;20780;-67
2022/03/19 08:19:52;;;;;;;37.57;31.53;;;8.60;99.90;;;;;;5019543;28;20454;-67
2022/03/19 08:22:18;;;;;;;37.00;31.83;;;8.60;99.90;;;;;;5019479;28;20419;-67
2022/03/19 08:24:45;;;;;;;39.30;33.03;;;8.60;99.90;;;;;;5019856;28;20475;-68
2022/03/19 08:27:11;;;;;;;34.80;29.47;;;8.70;99.90;;;;;;5019817;28;20182;-67
2022/03/19 08:29:36;;;;;;;37.83;31.07;;;8.70;99.90;;;;;;5019409;28;20441;-68
2022/03/19 08:32:02;;;;;;;38.43;30.00;;;8.70;99.90;;;;;;5019384;28;20424;-68
2022/03/19 08:34:28;;;;;;;33.80;28.40;;;8.70;99.90;;;;;;5015122;28;20197;-67
2022/03/19 08:36:54;;;;;;;37.33;31.27;;;8.60;99.90;;;;;;5016491;28;20440;-67
2022/03/19 08:42:04;;;;;;;37.63;30.47;;;9.00;99.90;;;;;;5016028;28;20388;-68
2022/03/19 08:44:30;;;;;;;36.40;28.90;;;9.10;99.90;;;;;;4998877;28;20445;-67
2022/03/19 08:46:55;;;;;;;33.63;28.97;;;9.20;99.90;;;;;;4996051;28;20167;-67
2022/03/19 08:49:21;;;;;;;32.00;27.50;;;9.10;99.90;;;;;;5011816;28;20199;-67
2022/03/19 08:51:47;;;;;;;31.27;27.23;;;9.00;99.90;;;;;;5015428;28;20179;-67
2022/03/19 08:54:15;;;;;;;32.40;28.00;;;9.10;99.90;;;;;;5015930;28;20192;-67
2022/03/19 08:56:42;;;;;;;34.10;28.53;;;9.00;99.70;;;;;;5014642;28;20193;-67
2022/03/19 08:59:09;;;;;;;35.03;27.73;;;9.00;99.60;;;;;;5015185;28;20417;-67
2022/03/19 09:01:35;;;;;;;34.70;27.90;;;9.00;99.80;;;;;;5015949;28;20429;-67
2022/03/19 09:04:02;;;;;;;31.10;26.07;;;9.10;99.50;;;;;;5012147;28;20407;-67
2022/03/19 09:06:27;;;;;;;34.73;27.20;;;9.20;99.30;;;;;;4987945;28;20452;-66
2022/03/19 09:08:53;;;;;;;33.40;28.10;;;9.20;99.30;;;;;;4995867;28;20423;-67
2022/03/19 09:11:20;;;;;;;29.67;25.97;;;9.40;99.20;;;;;;4997199;28;20173;-67
2022/03/19 09:13:50;;;;;;;31.77;27.93;;;9.50;99.00;;;;;;4996261;28;20698;-67
2022/03/19 09:16:17;;;;;;;29.73;26.00;;;9.70;98.70;;;;;;4995906;28;20390;-67
2022/03/19 09:18:43;;;;;;;32.63;29.00;;;9.80;98.60;;;;;;5013829;22;20580;-69
2022/03/19 09:21:09;;;;;;;30.90;27.13;;;9.70;98.30;;;;;;5014856;28;20415;-70
2022/03/19 09:23:35;;;;;;;32.70;29.03;;;9.60;98.90;;;;;;5014915;28;20388;-69
2022/03/19 09:26:00;;;;;;;35.80;27.27;;;9.60;98.70;;;;;;5013927;28;20167;-71
2022/03/19 09:28:26;;;;;;;33.47;29.80;;;9.50;98.70;;;;;;5013913;28;20254;-70
2022/03/19 09:30:52;;;;;;;32.60;27.83;;;9.70;98.80;;;;;;5014475;28;20160;-69
2022/03/19 09:33:18;;;;;;;39.57;30.17;;;9.80;98.60;;;;;;5012089;28;20176;-69
2022/03/19 09:35:48;;;;;;;37.13;30.63;;;10.00;98.10;;;;;;4994808;28;20172;-70
2022/03/19 09:38:15;;;;;;;35.17;28.60;;;10.10;97.70;;;;;;4998412;28;20436;-69
2022/03/19 09:40:41;;;;;;;38.03;30.00;;;10.20;97.80;;;;;;5014652;28;20421;-69
2022/03/19 09:43:08;;;;;;;32.87;28.50;;;10.20;97.70;;;;;;5014756;28;20410;-69
2022/03/19 09:45:34;;;;;;;31.87;26.73;;;10.30;97.60;;;;;;5012797;28;20407;-69
2022/03/19 09:48:01;;;;;;;36.53;30.37;;;10.40;97.40;;;;;;5014405;28;20578;-69
2022/03/19 09:50:27;;;;;;;34.87;29.10;;;10.50;97.00;;;;;;5012929;28;20518;-69
2022/03/19 09:52:55;;;;;;;32.73;28.40;;;10.60;97.20;;;;;;5014006;28;20473;-69
2022/03/19 09:55:26;;;;;;;32.23;28.73;;;10.50;97.00;;;;;;5014214;28;20527;-70
2022/03/19 09:57:53;;;;;;;34.80;30.27;;;10.40;97.10;;;;;;5012973;28;20405;-70
2022/03/19 10:00:22;;;;;;;33.00;29.40;;;10.50;97.10;;;;;;5014133;28;20418;-70
2022/03/19 10:03:01;;;;;;;32.90;29.40;;;10.80;97.10;;;;;;5014379;28;20411;-69
2022/03/19 10:08:39;;;;;;;36.63;31.00;;;10.60;96.80;;;;;;5014496;28;20389;-70
2022/03/19 10:11:15;;;;;;;38.40;29.77;;;10.80;96.60;;;;;;5014281;28;20391;-70
2022/03/19 10:13:47;;;;;;;34.37;28.53;;;11.00;96.60;;;;;;5014118;28;20541;-70
2022/03/19 10:16:19;;;;;;;35.83;28.53;;;11.10;96.50;;;;;;5013852;28;20432;-70
2022/03/19 10:18:54;;;;;;;34.53;28.67;;;11.30;95.70;;;;;;5013531;28;20450;-71
2022/03/19 10:21:19;;;;;;;30.87;27.40;;;11.10;95.90;;;;;;5013822;28;20880;-70
2022/03/19 10:23:45;;;;;;;30.57;26.97;;;11.10;95.70;;;;;;5012495;28;20422;-70
2022/03/19 10:26:24;;;;;;;33.33;29.70;;;11.00;95.90;;;;;;5013947;28;20511;-70
2022/03/19 10:29:04;;;;;;;32.70;27.20;;;11.10;95.70;;;;;;5014044;28;20210;-70
2022/03/19 10:31:35;;;;;;;34.90;28.43;;;11.20;95.20;;;;;;5014674;28;20466;-70
2022/03/19 10:34:02;;;;;;;31.47;28.10;;;11.30;95.10;;;;;;5013103;28;20458;-71
2022/03/19 10:36:34;;;;;;;38.30;28.37;;;11.60;95.20;;;;;;5013839;28;20796;-71
2022/03/19 10:39:00;;;;;;;34.30;30.60;;;11.60;94.70;;;;;;5012092;28;20433;-69
2022/03/19 10:41:27;;;;;;;35.17;30.17;;;11.40;94.90;;;;;;5012394;28;20426;-69
2022/03/19 10:43:52;;;;;;;35.43;28.80;;;11.50;95.00;;;;;;5013373;28;20777;-70
2022/03/19 10:46:19;;;;;;;36.97;31.43;;;11.50;95.20;;;;;;5012307;28;20430;-69
2022/03/19 10:48:53;;;;;;;34.77;30.70;;;11.60;95.60;;;;;;5013166;28;20195;-71
2022/03/19 10:51:20;;;;;;;35.67;30.93;;;11.90;95.70;;;;;;5012684;28;20422;-71
2022/03/19 10:53:48;;;;;;;35.03;31.10;;;12.50;94.60;;;;;;5011184;28;20445;-71
2022/03/19 10:56:15;;;;;;;36.43;31.30;;;12.70;93.90;;;;;;5011583;28;20422;-71
2022/03/19 10:58:41;;;;;;;37.73;31.10;;;13.10;93.60;;;;;;5013058;28;20432;-71
2022/03/19 11:01:08;;;;;;;36.37;31.80;;;13.40;93.90;;;;;;5012347;28;20827;-71
2022/03/19 11:03:39;;;;;;;36.33;29.77;;;13.40;93.20;;;;;;5013407;28;20409;-72
2022/03/19 11:06:06;;;;;;;37.10;31.37;;;13.50;93.30;;;;;;5013446;28;20404;-70
2022/03/19 11:08:43;;;;;;;38.80;32.47;;;13.60;93.30;;;;;;5012995;28;20441;-70
2022/03/19 11:11:17;;;;;;;39.40;32.23;;;13.90;93.00;;;;;;5012124;28;20421;-70
2022/03/19 11:13:46;;;;;;;39.40;32.20;;;13.90;93.10;;;;;;5012714;28;20492;-70
2022/03/19 11:16:13;;;;;;;31.13;26.10;;;13.60;92.90;;;;;;5012418;28;20427;-71
2022/03/19 11:18:42;;;;;;;34.20;28.60;;;13.90;91.50;;;;;;5012990;28;20427;-69
2022/03/19 11:21:14;;;;;;;30.70;27.57;;;15.20;90.70;;;;;;5012142;28;20427;-70
2022/03/19 11:23:57;;;;;;;30.53;27.33;;;14.90;88.80;;;;;;5012806;28;20831;-71
2022/03/19 11:26:28;;;;;;;31.40;25.37;;;15.90;86.40;;;;;;5012312;28;20723;-69
2022/03/19 11:28:55;;;;;;;28.20;25.20;;;16.50;84.00;;;;;;5013146;28;20435;-70
2022/03/19 11:31:28;;;;;;;24.90;22.43;;;17.40;79.80;;;;;;5012984;28;20403;-69
2022/03/19 11:33:59;;;;;;;22.80;20.40;;;18.20;73.80;;;;;;4993284;28;20450;-69
2022/03/19 11:36:24;;;;;;;21.47;18.43;;;18.20;71.00;;;;;;4993583;28;20385;-70
2022/03/19 11:38:52;;;;;;;20.20;18.10;;;18.50;68.20;;;;;;4993136;28;20765;-70
2022/03/19 11:41:23;;;;;;;21.93;16.67;;;18.30;64.80;;;;;;5007065;28;20194;-70
2022/03/19 11:43:50;;;;;;;20.33;18.07;;;16.90;66.50;;;;;;5012787;28;20864;-70
2022/03/19 11:46:17;;;;;;;19.90;16.27;;;16.00;68.20;;;;;;5011699;28;20452;-70
2022/03/19 11:48:43;;;;;;;18.37;16.37;;;15.00;71.20;;;;;;5012596;28;20438;-70
2022/03/19 11:51:18;;;;;;;16.93;14.90;;;14.90;72.70;;;;;;5012796;28;20411;-70
2022/03/19 11:53:53;;;;;;;17.50;15.30;;;14.50;73.20;;;;;;5012434;28;20446;-70
2022/03/19 11:56:19;;;;;;;16.53;14.57;;;14.70;73.90;;;;;;5012723;28;20405;-70
2022/03/19 11:58:46;;;;;;;17.10;14.60;;;15.50;72.00;;;;;;5011246;28;20435;-71
2022/03/19 12:01:13;;;;;;;17.00;15.20;;;15.00;72.30;;;;;;5010973;28;20974;-70
2022/03/19 12:04:06;;;;;;;15.63;14.03;;;15.00;74.60;;;;;;5011594;28;20754;-70
2022/03/19 12:06:37;;;;;;;17.33;14.80;;;14.90;72.80;;;;;;5012299;28;20396;-70
2022/03/19 12:09:02;;;;;;;14.43;12.93;;;15.20;73.60;;;;;;5014549;28;20429;-70
2022/03/19 12:11:28;;;;;;;16.87;13.20;;;15.10;73.80;;;;;;5016228;28;20484;-70
2022/03/19 12:13:56;;;;;;;14.93;13.27;;;15.90;72.40;;;;;;5015743;28;20195;-71
2022/03/19 12:16:42;;;;;;;16.17;13.20;;;15.10;71.80;;;;;;5016135;28;20167;-71
2022/03/19 12:19:08;;;;;;;14.17;12.33;;;15.50;70.40;;;;;;5015617;28;20522;-71
2022/03/19 12:21:41;;;;;;;17.53;12.17;;;15.90;68.10;;;;;;5015787;28;20930;-70
2022/03/19 12:24:08;;;;;;;14.70;11.57;;;15.40;66.50;;;;;;5015562;28;20953;-69
2022/03/19 12:26:51;;;;;;;13.60;11.73;;;15.20;67.20;;;;;;5015890;28;20488;-70
2022/03/19 12:29:19;;;;;;;13.57;11.97;;;15.20;65.20;;;;;;5016275;28;21045;-71
2022/03/19 12:31:50;;;;;;;12.90;11.50;;;15.80;64.90;;;;;;5015146;28;20765;-70
2022/03/19 12:34:20;;;;;;;14.17;12.10;;;15.80;62.90;;;;;;5016484;28;20488;-71
2022/03/19 12:36:47;;;;;;;13.23;11.90;;;16.10;63.80;;;;;;5014448;28;20502;-70
2022/03/19 12:39:13;;;;;;;16.50;12.30;;;16.90;62.20;;;;;;5015524;28;20522;-70
2022/03/19 12:41:40;;;;;;;15.40;12.37;;;16.10;64.50;;;;;;5015569;28;20779;-71
2022/03/19 12:44:10;;;;;;;15.60;12.53;;;17.80;62.70;;;;;;5012144;28;20399;-71
2022/03/19 12:46:37;;;;;;;15.87;13.70;;;17.80;60.30;;;;;;5014317;28;20493;-71